X  Zatvori METAR Podaci o vazduhoplovstvu        LYNI Nis Airport
Temperatura
2°C Temperatura
1°C Tačka Rose
93% Vlaga



Vetar
0 M/S
1 MPH
2 KM/H
1 KTS



-1°
VRB
Trenutna situacija

Mostly Cloudy Pretežno oblačno
Vazdušni pritisak 1025 (hPa) - 30.27 (inHg)
Vidljivost 30 (Milja) - 48 (km)
Aerodrom
Aerodromski kod. LYNI

Lokacija: Nis Airport
Udaljenost: 63 (km)

Metar:
METAR LYNI 290000Z VRB01KT 9999 BKN033 02/01 Q1024 NOSIG

Vreme: 29-01-2022 01:00 CET